createdAt,value
2023-02-24T00:00:22.260Z,37.83
2023-02-24T00:02:24.161Z,38.60
2023-02-24T00:04:26.080Z,28.77
2023-02-24T00:06:36.163Z,39.28
2023-02-24T00:08:42.225Z,32.70
2023-02-24T00:10:43.817Z,33.85
2023-02-24T00:12:49.496Z,36.55
2023-02-24T00:14:51.108Z,31.13
2023-02-24T00:16:54.192Z,43.00
2023-02-24T00:18:55.968Z,38.17
2023-02-24T00:21:03.796Z,30.77
2023-02-24T00:23:05.452Z,34.70
2023-02-24T00:25:07.521Z,35.20
2023-02-24T00:27:11.782Z,43.20
2023-02-24T00:29:16.351Z,32.53
2023-02-24T00:31:19.672Z,38.88
2023-02-24T00:33:24.349Z,34.25
2023-02-24T00:35:26.005Z,38.78
2023-02-24T00:37:28.316Z,39.28
2023-02-24T00:39:35.742Z,33.53
2023-02-24T00:41:40.282Z,42.90
2023-02-24T00:43:46.839Z,38.92
2023-02-24T00:45:51.582Z,38.67
2023-02-24T00:47:53.616Z,39.80
2023-02-24T00:49:55.278Z,38.17
2023-02-24T00:51:57.179Z,34.08
2023-02-24T00:53:58.827Z,40.13
2023-02-24T00:56:00.928Z,39.22
2023-02-24T00:58:04.817Z,44.10
2023-02-24T01:00:13.132Z,43.30
2023-02-24T01:02:15.263Z,34.40
2023-02-24T01:04:19.070Z,31.90
2023-02-24T01:06:22.864Z,37.83
2023-02-24T01:08:24.947Z,41.33
2023-02-24T01:10:28.680Z,37.38
2023-02-24T01:12:49.385Z,35.70
2023-02-24T01:14:52.636Z,34.50
2023-02-24T01:16:54.350Z,42.72
2023-02-24T01:18:56.384Z,40.50
2023-02-24T01:20:58.777Z,37.83
2023-02-24T01:23:00.681Z,37.35
2023-02-24T01:25:02.260Z,39.85
2023-02-24T01:27:04.410Z,37.33
2023-02-24T01:29:09.716Z,40.38
2023-02-24T01:31:11.556Z,34.50
2023-02-24T01:33:16.124Z,30.60
2023-02-24T01:35:17.938Z,39.83
2023-02-24T01:37:20.616Z,39.95
2023-02-24T01:39:22.352Z,34.90
2023-02-24T01:41:27.864Z,39.42
2023-02-24T01:43:29.482Z,39.55
2023-02-24T01:45:35.545Z,36.10
2023-02-24T01:47:38.752Z,31.73
2023-02-24T01:49:48.549Z,34.72
2023-02-24T01:51:58.492Z,34.78
2023-02-24T01:54:01.262Z,35.95
2023-02-24T01:56:03.071Z,37.17
2023-02-24T01:58:09.720Z,37.47
2023-02-24T02:00:34.385Z,28.75
2023-02-24T02:02:36.587Z,36.92
2023-02-24T02:04:50.965Z,43.08
2023-02-24T02:06:52.947Z,29.52
2023-02-24T02:08:54.970Z,38.20
2023-02-24T02:10:59.444Z,34.85
2023-02-24T02:13:01.166Z,31.70
2023-02-24T02:15:03.944Z,30.23
2023-02-24T02:17:20.726Z,35.42
2023-02-24T02:19:22.851Z,31.27
2023-02-24T02:21:48.467Z,27.48
2023-02-24T02:24:05.194Z,27.92
2023-02-24T02:26:18.970Z,31.17
2023-02-24T02:28:57.110Z,31.27
2023-02-24T02:31:19.816Z,30.58
2023-02-24T02:33:40.394Z,32.33
2023-02-24T02:35:54.425Z,30.92
2023-02-24T02:38:05.750Z,33.90
2023-02-24T02:40:33.284Z,27.30
2023-02-24T02:42:48.642Z,37.45
2023-02-24T02:45:08.188Z,34.25
2023-02-24T02:47:19.162Z,32.47
2023-02-24T02:49:33.158Z,31.52
2023-02-24T02:51:41.411Z,27.27
2023-02-24T02:53:47.265Z,33.90
2023-02-24T02:55:53.561Z,30.98
2023-02-24T02:57:57.324Z,39.17
2023-02-24T03:00:10.675Z,38.92
2023-02-24T03:02:13.162Z,45.70
2023-02-24T03:04:17.723Z,33.20
2023-02-24T03:06:31.240Z,27.00
2023-02-24T03:08:37.321Z,35.53
2023-02-24T03:10:40.447Z,34.28
2023-02-24T03:12:42.621Z,40.60
2023-02-24T03:14:51.231Z,35.88
2023-02-24T03:16:54.270Z,27.17
2023-02-24T03:19:04.974Z,31.77
2023-02-24T03:21:18.930Z,30.90
2023-02-24T03:23:31.787Z,34.10
2023-02-24T03:26:03.532Z,26.75
2023-02-24T03:28:14.106Z,32.72
2023-02-24T03:30:21.737Z,39.28
2023-02-24T03:32:33.783Z,31.58
2023-02-24T03:34:52.052Z,28.73
2023-02-24T03:36:54.524Z,35.90
2023-02-24T03:38:58.500Z,28.67
2023-02-24T03:41:00.213Z,32.78
2023-02-24T03:43:29.369Z,29.38
2023-02-24T03:45:39.226Z,29.70
2023-02-24T03:47:41.195Z,32.38
2023-02-24T03:49:43.843Z,33.47
2023-02-24T03:52:08.832Z,37.72
2023-02-24T03:54:33.501Z,31.73
2023-02-24T03:56:57.962Z,32.92
2023-02-24T03:59:36.516Z,28.40
2023-02-24T04:02:02.596Z,38.53
2023-02-24T04:04:12.207Z,37.97
2023-02-24T04:06:27.658Z,29.10
2023-02-24T04:08:38.352Z,23.08
2023-02-24T04:11:05.817Z,34.28
2023-02-24T04:13:07.513Z,30.08
2023-02-24T04:15:18.241Z,37.80
2023-02-24T04:17:27.553Z,31.17
2023-02-24T04:19:32.780Z,33.45
2023-02-24T04:21:35.924Z,29.20
2023-02-24T04:23:43.468Z,30.13
2023-02-24T04:25:47.878Z,32.47
2023-02-24T04:27:49.546Z,36.47
2023-02-24T04:29:53.890Z,28.70
2023-02-24T04:32:03.506Z,33.45
2023-02-24T04:34:09.525Z,35.55
2023-02-24T04:36:13.022Z,28.25
2023-02-24T04:38:14.797Z,28.33
2023-02-24T04:40:18.426Z,32.40
2023-02-24T04:42:20.109Z,36.25
2023-02-24T04:44:22.468Z,33.88
2023-02-24T04:46:24.133Z,33.67
2023-02-24T04:48:25.867Z,31.20
2023-02-24T04:50:31.905Z,26.92
2023-02-24T04:52:34.051Z,35.65
2023-02-24T04:54:35.682Z,37.40
2023-02-24T04:56:37.443Z,37.53
2023-02-24T04:58:40.265Z,38.67
2023-02-24T05:00:42.365Z,33.33
2023-02-24T05:02:44.082Z,30.20
2023-02-24T05:04:45.759Z,36.95
2023-02-24T05:06:47.583Z,34.47
2023-02-24T05:08:52.554Z,29.30
2023-02-24T05:10:56.808Z,48.15
2023-02-24T05:12:58.674Z,36.92
2023-02-24T05:15:01.398Z,31.45
2023-02-24T05:17:03.152Z,30.65
2023-02-24T05:19:23.534Z,28.42
2023-02-24T05:21:37.302Z,34.10
2023-02-24T05:23:44.268Z,32.25
2023-02-24T05:25:46.538Z,35.58
2023-02-24T05:27:51.511Z,25.95
2023-02-24T05:29:55.360Z,37.58
2023-02-24T05:31:59.960Z,37.25
2023-02-24T05:34:04.211Z,40.53
2023-02-24T05:36:08.822Z,43.70
2023-02-24T05:38:10.656Z,49.17
2023-02-24T05:40:15.485Z,34.42
2023-02-24T05:42:17.251Z,37.55
2023-02-24T05:44:23.011Z,32.40
2023-02-24T05:46:29.873Z,38.92
2023-02-24T05:48:35.473Z,32.28
2023-02-24T05:50:39.108Z,34.08
2023-02-24T05:52:40.849Z,37.63
2023-02-24T05:54:44.036Z,36.15
2023-02-24T05:56:45.735Z,26.17
2023-02-24T05:58:47.375Z,29.00
2023-02-24T06:00:48.998Z,30.17
2023-02-24T06:02:50.719Z,53.50
2023-02-24T06:04:54.090Z,28.95
2023-02-24T06:06:55.946Z,31.85
2023-02-24T06:08:58.496Z,29.55
2023-02-24T06:11:00.102Z,36.67
2023-02-24T06:13:02.540Z,27.83
2023-02-24T06:15:07.880Z,31.95
2023-02-24T06:17:09.836Z,27.30
2023-02-24T06:19:12.568Z,29.15
2023-02-24T06:21:14.319Z,33.22
2023-02-24T06:23:18.010Z,37.90
2023-02-24T06:25:25.189Z,29.65
2023-02-24T06:27:27.182Z,27.92
2023-02-24T06:29:30.612Z,41.75
2023-02-24T06:31:32.308Z,29.30
2023-02-24T06:33:36.336Z,29.10
2023-02-24T06:35:39.059Z,33.47
2023-02-24T06:37:41.297Z,32.92
2023-02-24T06:39:43.459Z,32.40
2023-02-24T06:41:45.602Z,32.28
2023-02-24T06:43:50.583Z,38.20
2023-02-24T06:45:52.337Z,39.38
2023-02-24T06:47:54.081Z,40.63
2023-02-24T06:49:55.752Z,48.78
2023-02-24T06:52:00.314Z,52.00
2023-02-24T06:54:02.884Z,44.88
2023-02-24T06:56:14.922Z,34.05
2023-02-24T06:58:18.956Z,37.88
2023-02-24T07:00:21.084Z,50.70
2023-02-24T07:02:25.444Z,34.30
2023-02-24T07:04:28.957Z,29.80
2023-02-24T07:06:36.160Z,30.42
2023-02-24T07:08:38.540Z,34.35
2023-02-24T07:10:40.147Z,40.75
2023-02-24T07:12:41.791Z,35.67
2023-02-24T07:14:44.115Z,33.95
2023-02-24T07:16:46.037Z,40.25
2023-02-24T07:18:50.685Z,38.78
2023-02-24T07:20:52.573Z,33.00
2023-02-24T07:22:54.241Z,37.33
2023-02-24T07:25:00.600Z,38.38
2023-02-24T07:27:05.168Z,34.22
2023-02-24T07:29:06.809Z,42.42
2023-02-24T07:31:12.035Z,39.47
2023-02-24T07:33:14.480Z,50.40
2023-02-24T07:35:16.268Z,31.83
2023-02-24T07:37:20.377Z,37.30
2023-02-24T07:39:23.355Z,38.30
2023-02-24T07:41:26.617Z,36.20
2023-02-24T07:43:28.808Z,35.83
2023-02-24T07:45:30.750Z,35.63
2023-02-24T07:47:33.065Z,35.20
2023-02-24T07:49:35.461Z,40.13
2023-02-24T07:51:37.223Z,38.38
2023-02-24T07:53:42.313Z,52.03
2023-02-24T07:55:44.005Z,48.80
2023-02-24T07:57:48.494Z,41.10
2023-02-24T07:59:50.174Z,40.40
2023-02-24T08:01:52.029Z,42.95
2023-02-24T08:04:01.275Z,45.95
2023-02-24T08:06:15.305Z,35.33
2023-02-24T08:08:21.152Z,40.83
2023-02-24T08:10:25.742Z,46.28
2023-02-24T08:12:38.888Z,40.33
2023-02-24T08:14:44.705Z,46.42
2023-02-24T08:16:48.388Z,43.25
2023-02-24T08:18:50.302Z,42.72
2023-02-24T08:21:04.810Z,45.15
2023-02-24T08:23:08.899Z,55.97
2023-02-24T08:25:18.727Z,52.97
2023-02-24T08:27:25.451Z,33.83
2023-02-24T08:29:27.148Z,33.42
2023-02-24T08:31:29.025Z,45.53
2023-02-24T08:33:30.971Z,48.90
2023-02-24T08:35:37.844Z,36.03
2023-02-24T08:37:51.267Z,35.72
2023-02-24T08:39:56.705Z,38.20
2023-02-24T08:41:58.455Z,24.00
2023-02-24T08:44:03.101Z,26.30
2023-02-24T08:46:15.407Z,24.10
2023-02-24T08:48:37.558Z,29.15
2023-02-24T08:50:39.775Z,24.45
2023-02-24T08:52:41.497Z,35.50
2023-02-24T08:54:49.322Z,40.58
2023-02-24T08:56:58.535Z,35.75
2023-02-24T08:59:06.273Z,27.42
2023-02-24T09:01:20.896Z,24.13
2023-02-24T09:03:30.117Z,31.90
2023-02-24T09:05:39.038Z,26.38
2023-02-24T09:07:41.874Z,31.48
2023-02-24T09:09:44.212Z,27.42
2023-02-24T09:11:46.778Z,26.15
2023-02-24T09:13:54.929Z,31.73
2023-02-24T09:15:56.593Z,23.63
2023-02-24T09:18:07.507Z,26.48
2023-02-24T09:20:25.936Z,26.52
2023-02-24T09:22:33.288Z,23.27
2023-02-24T09:24:35.306Z,23.10
2023-02-24T09:26:43.558Z,28.73
2023-02-24T09:28:58.291Z,23.88
2023-02-24T09:31:04.988Z,23.30
2023-02-24T09:33:18.442Z,21.30
2023-02-24T09:35:26.061Z,24.50
2023-02-24T09:37:27.806Z,26.77
2023-02-24T09:39:53.715Z,19.63
2023-02-24T09:41:55.685Z,22.85
2023-02-24T09:44:04.058Z,17.80
2023-02-24T09:46:17.009Z,26.58
2023-02-24T09:48:24.308Z,22.70
2023-02-24T09:51:02.667Z,20.13
2023-02-24T09:53:21.947Z,20.10
2023-02-24T09:56:02.590Z,27.13
2023-02-24T09:58:48.188Z,23.67
2023-02-24T10:00:54.014Z,19.25
2023-02-24T10:03:00.418Z,19.92
2023-02-24T10:05:38.824Z,16.67
2023-02-24T10:07:43.732Z,14.10
2023-02-24T10:10:20.508Z,16.90
2023-02-24T10:12:30.816Z,16.73
2023-02-24T10:15:16.450Z,17.45
2023-02-24T10:17:40.170Z,15.20
2023-02-24T10:19:42.700Z,22.02
2023-02-24T10:22:00.430Z,17.55
2023-02-24T10:24:16.959Z,16.80
2023-02-24T10:26:32.160Z,12.73
2023-02-24T10:28:44.330Z,17.75
2023-02-24T10:31:11.242Z,14.05
2023-02-24T10:33:19.218Z,17.05
2023-02-24T10:35:26.070Z,11.95
2023-02-24T10:37:29.785Z,14.38
2023-02-24T10:39:33.423Z,14.00
2023-02-24T10:42:16.023Z,10.45
2023-02-24T10:44:24.356Z,13.00
2023-02-24T10:46:42.961Z,9.15
2023-02-24T10:49:00.556Z,10.13
2023-02-24T10:51:20.146Z,15.02
2023-02-24T10:53:39.266Z,11.80
2023-02-24T10:55:46.601Z,10.07
2023-02-24T10:57:59.028Z,13.65
2023-02-24T11:00:19.677Z,12.13
2023-02-24T11:02:43.409Z,11.85
2023-02-24T11:05:06.471Z,12.40
2023-02-24T11:07:25.037Z,14.85
2023-02-24T11:09:30.243Z,11.60
2023-02-24T11:11:54.852Z,11.40
2023-02-24T11:14:18.203Z,11.02
2023-02-24T11:16:40.468Z,10.65
2023-02-24T11:18:47.106Z,9.18
2023-02-24T11:20:58.582Z,10.20
2023-02-24T11:23:10.128Z,13.18
2023-02-24T11:25:48.117Z,9.25
2023-02-24T11:27:55.233Z,7.38
2023-02-24T11:30:17.657Z,10.25
2023-02-24T11:32:42.022Z,12.32
2023-02-24T11:34:55.624Z,8.68
2023-02-24T11:37:10.649Z,9.80
2023-02-24T11:39:31.323Z,9.00
2023-02-24T11:41:40.665Z,19.50
2023-02-24T11:43:44.991Z,8.88
2023-02-24T11:45:55.360Z,8.35
2023-02-24T11:48:24.348Z,9.63
2023-02-24T11:50:33.122Z,10.82
2023-02-24T11:52:38.831Z,9.07
2023-02-24T11:54:45.148Z,11.13
2023-02-24T11:56:49.997Z,9.20
2023-02-24T11:59:10.144Z,11.20
2023-02-24T12:01:46.482Z,12.43
2023-02-24T12:03:55.794Z,9.90
2023-02-24T12:06:03.094Z,8.07
2023-02-24T12:08:23.603Z,10.25
2023-02-24T12:10:38.444Z,9.48
2023-02-24T12:12:44.619Z,6.15
2023-02-24T12:14:59.462Z,9.80
2023-02-24T12:17:28.653Z,7.57
2023-02-24T12:19:58.726Z,5.45
2023-02-24T12:22:07.830Z,4.95
2023-02-24T12:24:14.009Z,4.20
2023-02-24T12:26:40.985Z,4.50
2023-02-24T12:29:01.308Z,4.47
2023-02-24T12:31:32.206Z,5.38
2023-02-24T12:33:57.205Z,5.85
2023-02-24T12:36:30.819Z,7.78
2023-02-24T12:38:43.916Z,5.93
2023-02-24T12:41:17.921Z,4.55
2023-02-24T12:43:25.505Z,7.40
2023-02-24T12:45:58.560Z,8.90
2023-02-24T12:48:37.646Z,6.70
2023-02-24T12:51:12.814Z,8.30
2023-02-24T12:53:48.218Z,8.23
2023-02-24T12:56:13.825Z,6.45
2023-02-24T12:58:19.919Z,6.97
2023-02-24T13:00:26.258Z,8.52
2023-02-24T13:02:58.508Z,7.75
2023-02-24T13:05:18.162Z,10.20
2023-02-24T13:07:50.544Z,7.07
2023-02-24T13:10:10.132Z,8.57
2023-02-24T13:12:24.880Z,11.43
2023-02-24T13:14:35.679Z,8.07
2023-02-24T13:16:37.423Z,9.05
2023-02-24T13:18:42.449Z,9.02
2023-02-24T13:20:44.106Z,7.70
2023-02-24T13:22:50.058Z,7.90
2023-02-24T13:24:54.553Z,8.30
2023-02-24T13:27:23.535Z,6.68
2023-02-24T13:29:25.407Z,7.07
2023-02-24T13:31:27.692Z,8.48
2023-02-24T13:33:32.857Z,8.00
2023-02-24T13:35:36.858Z,13.15
2023-02-24T13:37:40.173Z,10.40
2023-02-24T13:39:41.849Z,8.85
2023-02-24T13:41:43.514Z,9.90
2023-02-24T13:44:03.373Z,6.53
2023-02-24T13:46:18.233Z,8.05
2023-02-24T13:48:39.048Z,8.35
2023-02-24T13:51:25.031Z,14.90
2023-02-24T13:53:44.087Z,7.68
2023-02-24T13:55:51.261Z,6.47
2023-02-24T13:58:05.263Z,7.25
2023-02-24T14:00:30.192Z,13.50
2023-02-24T14:02:38.741Z,6.28
2023-02-24T14:04:56.112Z,4.18
2023-02-24T14:07:03.698Z,6.97
2023-02-24T14:09:06.692Z,4.07
2023-02-24T14:11:11.696Z,6.88
2023-02-24T14:13:22.340Z,5.05
2023-02-24T14:15:27.324Z,8.85
2023-02-24T14:17:37.845Z,4.45
2023-02-24T14:19:39.463Z,5.55
2023-02-24T14:21:53.640Z,5.45
2023-02-24T14:23:57.439Z,6.07
2023-02-24T14:26:08.835Z,5.00
2023-02-24T14:28:20.748Z,4.22
2023-02-24T14:30:39.568Z,4.28
2023-02-24T14:32:43.061Z,4.22
2023-02-24T14:34:47.498Z,4.88
2023-02-24T14:36:52.070Z,4.28
2023-02-24T14:39:14.376Z,5.30
2023-02-24T14:41:23.862Z,7.65
2023-02-24T14:43:25.511Z,7.93
2023-02-24T14:45:28.952Z,3.45
2023-02-24T14:47:33.458Z,7.68
2023-02-24T14:49:36.034Z,4.22
2023-02-24T14:51:37.650Z,3.45
2023-02-24T14:53:46.610Z,3.15
2023-02-24T14:55:50.772Z,3.72
2023-02-24T14:58:03.989Z,4.10
2023-02-24T15:00:17.446Z,6.05
2023-02-24T15:02:24.464Z,4.05
2023-02-24T15:04:34.161Z,4.38
2023-02-24T15:06:41.006Z,4.45
2023-02-24T15:08:46.619Z,7.43
2023-02-24T15:10:48.325Z,6.85
2023-02-24T15:12:54.505Z,4.57
2023-02-24T15:15:24.469Z,4.30
2023-02-24T15:17:26.157Z,3.95
2023-02-24T15:19:37.113Z,17.77
2023-02-24T15:21:40.595Z,5.88
2023-02-24T15:23:42.207Z,4.15
2023-02-24T15:25:46.186Z,6.38
2023-02-24T15:27:50.773Z,13.57
2023-02-24T15:30:01.101Z,4.80
2023-02-24T15:32:04.667Z,6.22
2023-02-24T15:34:07.036Z,4.63
2023-02-24T15:36:20.011Z,3.80
2023-02-24T15:38:29.564Z,4.50
2023-02-24T15:40:31.773Z,5.28
2023-02-24T15:42:35.641Z,4.60
2023-02-24T15:44:37.319Z,4.45
2023-02-24T15:46:38.997Z,11.57
2023-02-24T15:48:43.651Z,4.07
2023-02-24T15:50:45.273Z,3.10
2023-02-24T15:52:46.932Z,4.60
2023-02-24T15:54:48.665Z,4.93
2023-02-24T15:56:50.329Z,4.95
2023-02-24T15:58:51.957Z,4.18
2023-02-24T16:00:54.363Z,5.72
2023-02-24T16:02:56.038Z,8.02
2023-02-24T16:04:57.600Z,5.38
2023-02-24T16:07:06.396Z,4.53
2023-02-24T16:09:13.497Z,6.47
2023-02-24T16:11:17.575Z,6.25
2023-02-24T16:13:21.857Z,7.85
2023-02-24T16:15:33.448Z,7.93
2023-02-24T16:17:41.693Z,6.13
2023-02-24T16:19:44.252Z,7.55
2023-02-24T16:21:46.434Z,7.50
2023-02-24T16:23:48.754Z,12.05
2023-02-24T16:25:53.202Z,7.38
2023-02-24T16:27:57.382Z,5.47
2023-02-24T16:29:59.026Z,6.07
2023-02-24T16:32:00.848Z,5.72
2023-02-24T16:34:02.759Z,5.65
2023-02-24T16:36:10.043Z,10.38
2023-02-24T16:38:15.622Z,5.68
2023-02-24T16:40:33.739Z,5.15
2023-02-24T16:42:35.337Z,5.70
2023-02-24T16:44:37.184Z,9.88
2023-02-24T16:46:41.242Z,4.95
2023-02-24T16:48:46.033Z,5.75
2023-02-24T16:50:48.020Z,8.52
2023-02-24T16:52:50.219Z,7.90
2023-02-24T16:54:51.983Z,8.02
2023-02-24T16:56:53.551Z,7.95
2023-02-24T16:58:55.235Z,7.13
2023-02-24T17:01:03.020Z,6.45
2023-02-24T17:03:07.873Z,7.82
2023-02-24T17:05:17.200Z,7.47
2023-02-24T17:07:20.911Z,7.70
2023-02-24T17:09:22.791Z,7.63
2023-02-24T17:11:26.415Z,7.72
2023-02-24T17:13:28.082Z,7.47
2023-02-24T17:15:29.890Z,8.30
2023-02-24T17:17:31.545Z,8.90
2023-02-24T17:19:33.132Z,9.88
2023-02-24T17:21:35.249Z,7.50
2023-02-24T17:23:36.838Z,6.80
2023-02-24T17:25:38.519Z,6.07
2023-02-24T17:27:40.095Z,7.45
2023-02-24T17:29:41.636Z,4.72
2023-02-24T17:31:43.371Z,7.10
2023-02-24T17:33:45.117Z,5.38
2023-02-24T17:35:47.887Z,5.30
2023-02-24T17:37:49.732Z,4.25
2023-02-24T17:39:51.298Z,4.28
2023-02-24T17:41:52.861Z,5.18
2023-02-24T17:43:55.004Z,5.78
2023-02-24T17:45:56.671Z,5.03
2023-02-24T17:47:58.373Z,4.68
2023-02-24T17:50:00.729Z,5.03
2023-02-24T17:52:04.637Z,4.88
2023-02-24T17:54:08.504Z,6.65
2023-02-24T17:56:10.576Z,7.90
2023-02-24T17:58:12.185Z,6.93
2023-02-24T18:00:15.576Z,5.72
2023-02-24T18:02:18.217Z,8.02
2023-02-24T18:04:19.977Z,6.38
2023-02-24T18:06:21.941Z,6.18
2023-02-24T18:08:23.760Z,6.40
2023-02-24T18:10:26.163Z,4.95
2023-02-24T18:12:27.827Z,5.15
2023-02-24T18:14:29.605Z,6.10
2023-02-24T18:16:31.306Z,5.20
2023-02-24T18:18:33.002Z,4.35
2023-02-24T18:20:34.604Z,4.82
2023-02-24T18:22:36.287Z,5.50
2023-02-24T18:24:39.403Z,7.65
2023-02-24T18:26:41.049Z,5.15
2023-02-24T18:28:42.878Z,5.13
2023-02-24T18:30:44.514Z,5.10
2023-02-24T18:32:47.427Z,5.63
2023-02-24T18:34:49.368Z,5.45
2023-02-24T18:36:51.010Z,4.85
2023-02-24T18:38:52.965Z,5.50
2023-02-24T18:41:05.716Z,4.50
2023-02-24T18:43:07.348Z,4.65
2023-02-24T18:45:09.418Z,4.35
2023-02-24T18:47:11.081Z,3.55
2023-02-24T18:49:12.774Z,4.32
2023-02-24T18:51:17.433Z,3.80
2023-02-24T18:53:19.621Z,3.20
2023-02-24T18:55:22.209Z,2.80
2023-02-24T18:57:23.831Z,2.00
2023-02-24T18:59:25.661Z,2.72
2023-02-24T19:01:36.718Z,1.92
2023-02-24T19:03:38.500Z,1.80
2023-02-24T19:05:40.143Z,2.22
2023-02-24T19:07:42.969Z,1.73
2023-02-24T19:09:48.086Z,2.75
2023-02-24T19:11:50.949Z,1.63
2023-02-24T19:13:53.139Z,1.55
2023-02-24T19:15:54.723Z,2.17
2023-02-24T19:17:56.557Z,2.35
2023-02-24T19:19:58.153Z,1.67
2023-02-24T19:22:00.268Z,2.20
2023-02-24T19:24:03.715Z,2.42
2023-02-24T19:26:07.568Z,2.10
2023-02-24T19:28:09.176Z,2.40
2023-02-24T19:30:11.269Z,2.25
2023-02-24T19:32:13.064Z,1.52
2023-02-24T19:34:15.443Z,1.83
2023-02-24T19:36:17.063Z,3.33
2023-02-24T19:38:21.498Z,2.58
2023-02-24T19:40:23.622Z,1.60
2023-02-24T19:42:25.539Z,2.38
2023-02-24T19:44:27.188Z,2.00
2023-02-24T19:46:32.987Z,1.98
2023-02-24T19:48:35.016Z,2.15
2023-02-24T19:50:39.906Z,2.28
2023-02-24T19:52:41.916Z,1.65
2023-02-24T19:54:43.554Z,2.30
2023-02-24T19:56:45.244Z,2.55
2023-02-24T19:58:47.885Z,1.85
2023-02-24T20:00:49.609Z,1.92
2023-02-24T20:02:51.328Z,3.85
2023-02-24T20:04:53.004Z,2.40
2023-02-24T20:06:54.747Z,2.45
2023-02-24T20:08:56.653Z,3.67
2023-02-24T20:10:59.816Z,5.88
2023-02-24T20:13:01.510Z,2.63
2023-02-24T20:15:04.672Z,4.13
2023-02-24T20:17:06.333Z,3.95
2023-02-24T20:19:09.381Z,4.45
2023-02-24T20:21:12.180Z,3.22
2023-02-24T20:23:14.175Z,5.05
2023-02-24T20:25:15.896Z,4.13
2023-02-24T20:27:19.043Z,3.00
2023-02-24T20:29:21.815Z,4.45
2023-02-24T20:31:24.022Z,3.13
2023-02-24T20:33:26.029Z,2.85
2023-02-24T20:35:28.565Z,2.80
2023-02-24T20:37:30.208Z,2.53
2023-02-24T20:39:33.077Z,2.90
2023-02-24T20:41:34.951Z,3.70
2023-02-24T20:43:36.615Z,9.02
2023-02-24T20:45:40.867Z,2.90
2023-02-24T20:47:42.653Z,5.15
2023-02-24T20:49:44.284Z,3.95
2023-02-24T20:51:45.922Z,3.50
2023-02-24T20:53:57.255Z,4.00
2023-02-24T20:56:07.573Z,4.22
2023-02-24T20:58:09.361Z,3.78
2023-02-24T21:00:11.815Z,4.95
2023-02-24T21:02:13.397Z,5.70
2023-02-24T21:04:17.006Z,4.47
2023-02-24T21:06:19.091Z,4.68
2023-02-24T21:08:20.782Z,5.40
2023-02-24T21:10:22.915Z,6.53
2023-02-24T21:12:24.515Z,10.38
2023-02-24T21:14:26.306Z,6.57
2023-02-24T21:16:28.269Z,4.20
2023-02-24T21:18:30.499Z,4.68
2023-02-24T21:20:32.082Z,5.15
2023-02-24T21:22:33.790Z,5.85
2023-02-24T21:24:35.498Z,5.75
2023-02-24T21:26:37.366Z,6.57
2023-02-24T21:28:40.632Z,6.43
2023-02-24T21:30:42.798Z,5.55
2023-02-24T21:32:44.606Z,5.32
2023-02-24T21:34:46.272Z,9.00
2023-02-24T21:36:47.914Z,6.50
2023-02-24T21:38:49.589Z,4.20
2023-02-24T21:40:51.218Z,5.82
2023-02-24T21:42:52.826Z,5.30
2023-02-24T21:44:58.777Z,7.05
2023-02-24T21:47:00.360Z,5.82
2023-02-24T21:49:02.274Z,7.38
2023-02-24T21:51:05.883Z,5.40
2023-02-24T21:53:07.515Z,7.45
2023-02-24T21:55:09.971Z,4.90
2023-02-24T21:57:12.045Z,5.93
2023-02-24T21:59:13.730Z,6.65
2023-02-24T22:01:21.275Z,4.82
2023-02-24T22:03:23.348Z,7.85
2023-02-24T22:05:26.362Z,8.00
2023-02-24T22:07:28.602Z,5.82
2023-02-24T22:09:30.961Z,5.68
2023-02-24T22:11:37.726Z,5.80
2023-02-24T22:13:40.281Z,5.25
2023-02-24T22:15:41.931Z,6.65
2023-02-24T22:17:43.618Z,8.52
2023-02-24T22:19:45.256Z,5.57
2023-02-24T22:21:46.918Z,6.80
2023-02-24T22:23:50.897Z,8.15
2023-02-24T22:25:52.572Z,6.72
2023-02-24T22:27:54.380Z,7.32
2023-02-24T22:29:56.331Z,5.10
2023-02-24T22:31:59.230Z,6.68
2023-02-24T22:34:01.156Z,6.10
2023-02-24T22:36:11.478Z,5.90
2023-02-24T22:38:13.114Z,10.35
2023-02-24T22:40:14.905Z,6.07
2023-02-24T22:42:16.583Z,6.43
2023-02-24T22:44:21.427Z,5.60
2023-02-24T22:46:26.785Z,7.57
2023-02-24T22:48:29.757Z,5.50
2023-02-24T22:50:31.672Z,5.40
2023-02-24T22:52:33.356Z,5.55
2023-02-24T22:54:35.181Z,8.48
2023-02-24T22:56:37.922Z,6.40
2023-02-24T22:58:39.816Z,13.05
2023-02-24T23:00:42.531Z,8.50
2023-02-24T23:02:44.518Z,5.00
2023-02-24T23:04:46.098Z,5.88
2023-02-24T23:06:47.783Z,6.53
2023-02-24T23:08:50.888Z,6.70
2023-02-24T23:10:53.091Z,5.75
2023-02-24T23:12:55.491Z,6.03
2023-02-24T23:14:58.765Z,5.88
2023-02-24T23:17:00.394Z,5.85
2023-02-24T23:19:07.552Z,9.75
2023-02-24T23:21:10.111Z,5.50
2023-02-24T23:23:12.330Z,5.13
2023-02-24T23:25:15.013Z,5.07
2023-02-24T23:27:16.739Z,5.63
2023-02-24T23:29:20.131Z,5.80
2023-02-24T23:31:22.287Z,8.30
2023-02-24T23:33:23.981Z,5.40
2023-02-24T23:35:25.684Z,8.02
2023-02-24T23:37:27.420Z,6.25
2023-02-24T23:39:29.148Z,5.68
2023-02-24T23:41:30.823Z,7.75
2023-02-24T23:43:33.461Z,5.63
2023-02-24T23:45:40.555Z,5.75
2023-02-24T23:47:42.270Z,5.18
2023-02-24T23:49:48.444Z,6.45
2023-02-24T23:51:50.289Z,8.25
2023-02-24T23:53:52.003Z,5.57
2023-02-24T23:55:53.642Z,4.55
2023-02-24T23:57:55.278Z,7.00
2023-02-24T23:59:56.837Z,4.63
